Meteo Giornale » Osservazioni meteo Italia » Pratica Di Mare

ore: 09:55 - Osservazioni Meteo Pratica Di Mare
Lat. 41° 39' N Lon. 12° 27' E Alt. 6 metri s.l.m.

sereno Europe/Rome

11 °C

Sereno

Temp. 24 Ore

6 °C

20 °C

Nord/Nord-Est

9.3 Km/h

Dew point 7 °C

Umidità 76 %

Visibilità  10 Km

Il sole sorge alle ore 07:11

Il sole tramonta alle ore 16:44

Data e Ora Cielo e Fenomeni T °C DP °C Um. % Pres. hPa Vis. km Vento km/h
Oggi h: 09:55 sereno Sereno 11 7 76 1023 10 N/NE 9.3
Oggi h: 08:55 sereno Sereno 8 5 81 1023 10 NE 13
Oggi h: 07:55 sereno Sereno 6 4 86 1022 8 N/NE 14.8
Oggi h: 06:55 sereno Sereno 6 4 86 1022 8 N/NE 14.8
Oggi h: 05:55 sereno Sereno 7 5 87 1022 10 N/NE 11.1
Oggi h: 03:55 sereno Sereno 7 5 87 1022 10 N/NE 13
Oggi h: 02:55 sereno Sereno 7 5 87 1022 10 N 13
Oggi h: 01:55 sereno Sereno 8 6 87 1022 10 N/NE 11.1
Oggi h: 00:55 sereno Sereno 8 6 87 1022 10 N/NE 7.4
Ieri h: 23:55 sereno Sereno 9 6 81 1022 10 N/NE 11.1
Ieri h: 21:55 sereno Sereno 9 7 87 1022 10 N/NE 9.3
Ieri h: 20:55 sereno Sereno 9 7 87 1021 10 N/NE 9.3
Ieri h: 19:55 sereno Sereno 9 7 87 1021 10 N 5.5
Ieri h: 18:55 sereno Sereno 10 8 87 1021 10 N 7.4
Ieri h: 17:55 sereno Sereno 12 9 81 1021 10 N 3.7
Ieri h: 16:55 sereno Sereno 14 11 82 1021 10 N 3.7
Ieri h: 13:55 poco_nuvoloso Poco Nuvoloso 20 13 64 1022 10 S 9.3
Ieri h: 12:55 poco_nuvoloso Poco Nuvoloso 20 13 64 1022 10 S 11.1
Ieri h: 11:55 poco_nuvoloso Poco Nuvoloso 20 13 64 1022 10 S/SE 7.4
Ieri h: 10:55 poco_nuvoloso Poco Nuvoloso 15 9 67 1022 10 SE 9.3